createdAt,value
2017-09-16T00:00:23.093Z,88.10
2017-09-16T00:02:51.427Z,88.10
2017-09-16T00:05:19.740Z,88.20
2017-09-16T00:07:48.076Z,88.20
2017-09-16T00:10:16.380Z,88.70
2017-09-16T00:12:44.724Z,88.20
2017-09-16T00:15:13.045Z,88.20
2017-09-16T00:17:41.359Z,88.20
2017-09-16T00:20:09.704Z,88.20
2017-09-16T00:22:38.016Z,88.10
2017-09-16T00:25:06.348Z,87.90
2017-09-16T00:27:34.668Z,88.10
2017-09-16T00:30:03.009Z,87.90
2017-09-16T00:32:30.564Z,88.00
2017-09-16T00:34:58.928Z,87.80
2017-09-16T00:37:27.252Z,87.80
2017-09-16T00:39:55.571Z,87.90
2017-09-16T00:42:23.917Z,88.10
2017-09-16T00:44:52.237Z,88.10
2017-09-16T00:47:20.570Z,88.20
2017-09-16T00:49:48.884Z,88.10
2017-09-16T00:52:17.212Z,88.00
2017-09-16T00:54:45.519Z,88.00
2017-09-16T00:57:13.852Z,87.80
2017-09-16T00:59:42.187Z,87.70
2017-09-16T01:02:10.497Z,87.70
2017-09-16T01:04:38.835Z,87.70
2017-09-16T01:07:07.144Z,87.90
2017-09-16T01:09:35.472Z,88.10
2017-09-16T01:12:03.788Z,88.20
2017-09-16T01:14:32.136Z,88.20
2017-09-16T01:17:00.448Z,88.20
2017-09-16T01:19:28.760Z,88.20
2017-09-16T01:21:57.092Z,88.20
2017-09-16T01:24:25.401Z,88.30
2017-09-16T01:26:53.727Z,88.40
2017-09-16T01:29:22.045Z,88.30
2017-09-16T01:31:50.376Z,88.20
2017-09-16T01:34:18.683Z,88.30
2017-09-16T01:36:47.044Z,88.30
2017-09-16T01:39:15.352Z,88.30
2017-09-16T01:41:43.673Z,88.30
2017-09-16T01:47:03.613Z,88.30
2017-09-16T01:49:31.924Z,88.20
2017-09-16T01:52:00.227Z,88.20
2017-09-16T01:54:28.564Z,88.20
2017-09-16T01:56:56.871Z,88.30
2017-09-16T01:59:25.215Z,88.40
2017-09-16T02:01:53.519Z,88.40
2017-09-16T02:04:21.851Z,88.30
2017-09-16T02:06:50.156Z,88.20
2017-09-16T02:09:18.504Z,88.10
2017-09-16T02:11:46.812Z,88.10
2017-09-16T02:14:15.124Z,88.10
2017-09-16T02:16:43.462Z,88.00
2017-09-16T02:19:11.776Z,87.90
2017-09-16T02:21:39.339Z,87.90
2017-09-16T02:24:07.647Z,87.90
2017-09-16T02:26:35.972Z,88.20
2017-09-16T02:29:04.285Z,88.30
2017-09-16T02:31:32.619Z,88.40
2017-09-16T02:34:00.937Z,88.60
2017-09-16T02:36:29.239Z,88.70
2017-09-16T02:38:57.576Z,88.70
2017-09-16T02:41:25.889Z,88.60
2017-09-16T02:43:54.221Z,88.40
2017-09-16T02:46:21.768Z,88.40
2017-09-16T02:48:50.101Z,88.20
2017-09-16T02:51:18.411Z,88.40
2017-09-16T02:53:46.761Z,88.30
2017-09-16T02:56:15.076Z,88.30
2017-09-16T02:58:43.381Z,88.40
2017-09-16T03:01:11.713Z,88.60
2017-09-16T03:03:40.019Z,88.50
2017-09-16T03:06:07.588Z,88.50
2017-09-16T03:08:35.896Z,88.50
2017-09-16T03:11:04.231Z,88.70
2017-09-16T03:13:32.581Z,88.70
2017-09-16T03:16:00.920Z,88.60
2017-09-16T03:18:29.229Z,88.60
2017-09-16T03:20:57.540Z,88.60
2017-09-16T03:23:25.879Z,88.50
2017-09-16T03:25:54.185Z,88.50
2017-09-16T03:28:22.520Z,88.50
2017-09-16T03:30:50.843Z,88.60
2017-09-16T03:33:19.192Z,88.30
2017-09-16T03:35:47.495Z,88.30
2017-09-16T03:38:15.852Z,88.10
2017-09-16T03:40:44.172Z,87.90
2017-09-16T03:43:12.484Z,88.40
2017-09-16T03:45:40.816Z,87.80
2017-09-16T03:48:09.140Z,87.70
2017-09-16T03:50:37.467Z,87.60
2017-09-16T03:53:05.783Z,87.40
2017-09-16T03:55:34.120Z,87.30
2017-09-16T03:58:02.440Z,87.30
2017-09-16T04:00:30.786Z,87.20
2017-09-16T04:02:59.091Z,87.20
2017-09-16T04:05:27.392Z,87.20
2017-09-16T04:07:55.737Z,87.30
2017-09-16T04:10:24.053Z,87.50
2017-09-16T04:12:52.389Z,87.50
2017-09-16T04:15:20.700Z,87.50
2017-09-16T04:17:49.026Z,87.70
2017-09-16T04:20:17.340Z,87.90
2017-09-16T04:22:44.916Z,87.90
2017-09-16T04:25:13.219Z,88.10
2017-09-16T04:27:41.528Z,88.20
2017-09-16T04:30:09.864Z,88.20
2017-09-16T04:32:38.177Z,88.30
2017-09-16T04:35:06.512Z,88.30
2017-09-16T04:37:34.859Z,88.30
2017-09-16T04:40:03.199Z,88.20
2017-09-16T04:42:31.507Z,88.30
2017-09-16T04:44:59.844Z,88.30
2017-09-16T04:47:28.212Z,88.50
2017-09-16T04:49:56.515Z,88.50
2017-09-16T04:52:24.103Z,88.50
2017-09-16T04:54:52.407Z,88.50
2017-09-16T04:57:20.740Z,88.60
2017-09-16T04:59:49.047Z,88.60
2017-09-16T05:02:17.387Z,88.60
2017-09-16T05:04:45.700Z,88.50
2017-09-16T05:07:14.010Z,88.30
2017-09-16T05:09:42.349Z,88.30
2017-09-16T05:12:10.664Z,88.20
2017-09-16T05:14:38.991Z,88.20
2017-09-16T05:17:07.296Z,88.30
2017-09-16T05:19:35.625Z,88.30
2017-09-16T05:22:03.940Z,89.00
2017-09-16T05:24:32.285Z,88.70
2017-09-16T05:27:00.607Z,88.80
2017-09-16T05:29:28.916Z,88.60
2017-09-16T05:31:57.256Z,88.70
2017-09-16T05:34:25.588Z,88.70
2017-09-16T05:36:53.922Z,88.70
2017-09-16T05:39:22.227Z,88.50
2017-09-16T05:41:50.576Z,88.40
2017-09-16T05:44:18.903Z,88.70
2017-09-16T05:46:47.252Z,88.50
2017-09-16T05:49:15.561Z,88.40
2017-09-16T05:51:43.867Z,88.30
2017-09-16T05:54:12.191Z,88.30
2017-09-16T05:56:40.508Z,88.20
2017-09-16T05:59:08.977Z,88.10
2017-09-16T06:01:37.315Z,88.00
2017-09-16T06:04:05.655Z,87.70
2017-09-16T06:06:33.980Z,87.70
2017-09-16T06:09:02.344Z,87.70
2017-09-16T06:11:30.660Z,87.80
2017-09-16T06:13:58.968Z,87.60
2017-09-16T06:16:27.327Z,87.40
2017-09-16T06:18:55.635Z,87.30
2017-09-16T06:21:23.964Z,87.10
2017-09-16T06:23:52.276Z,86.90
2017-09-16T06:26:20.603Z,86.80
2017-09-16T06:28:48.911Z,86.70
2017-09-16T06:31:17.261Z,86.70
2017-09-16T06:33:45.573Z,86.50
2017-09-16T06:36:13.879Z,86.30
2017-09-16T06:38:42.332Z,86.00
2017-09-16T06:41:10.644Z,85.80
2017-09-16T06:43:38.971Z,85.50
2017-09-16T06:46:07.288Z,85.20
2017-09-16T06:48:35.616Z,85.10
2017-09-16T06:51:03.165Z,85.10
2017-09-16T06:53:31.495Z,84.50
2017-09-16T06:55:59.832Z,84.20
2017-09-16T06:58:28.140Z,83.90
2017-09-16T07:00:56.476Z,83.80
2017-09-16T07:03:24.788Z,83.70
2017-09-16T07:05:53.116Z,83.50
2017-09-16T07:08:21.440Z,83.30
2017-09-16T07:10:49.773Z,82.90
2017-09-16T07:13:18.101Z,82.50
2017-09-16T07:15:46.440Z,82.30
2017-09-16T07:18:14.748Z,81.90
2017-09-16T07:20:43.083Z,81.50
2017-09-16T07:23:11.393Z,81.00
2017-09-16T07:25:39.708Z,80.60
2017-09-16T07:28:08.040Z,80.10
2017-09-16T07:30:36.345Z,79.90
2017-09-16T07:33:04.680Z,79.80
2017-09-16T07:35:32.990Z,79.60
2017-09-16T07:38:01.327Z,77.90
2017-09-16T07:40:29.676Z,77.70
2017-09-16T07:42:58.008Z,77.90
2017-09-16T07:45:26.332Z,77.90
2017-09-16T07:47:54.683Z,78.20
2017-09-16T07:50:23.000Z,78.10
2017-09-16T07:52:51.318Z,78.00
2017-09-16T07:55:19.651Z,78.00
2017-09-16T07:57:47.964Z,77.00
2017-09-16T08:00:16.297Z,76.40
2017-09-16T08:02:43.844Z,76.30
2017-09-16T08:05:12.180Z,74.80
2017-09-16T08:07:40.487Z,74.30
2017-09-16T08:10:08.060Z,74.30
2017-09-16T08:12:36.371Z,73.10
2017-09-16T08:15:04.740Z,72.50
2017-09-16T08:17:33.052Z,71.90
2017-09-16T08:20:01.368Z,70.60
2017-09-16T08:22:29.713Z,70.00
2017-09-16T08:24:57.255Z,70.00
2017-09-16T08:27:25.596Z,69.80
2017-09-16T08:29:53.913Z,68.80
2017-09-16T08:32:22.264Z,68.80
2017-09-16T08:34:50.572Z,68.40
2017-09-16T08:37:18.908Z,67.60
2017-09-16T08:39:47.272Z,67.20
2017-09-16T08:42:15.604Z,66.50
2017-09-16T08:44:43.924Z,64.90
2017-09-16T08:47:12.260Z,64.60
2017-09-16T08:49:40.579Z,63.90
2017-09-16T08:52:08.895Z,63.70
2017-09-16T08:54:37.231Z,63.30
2017-09-16T08:57:05.545Z,62.60
2017-09-16T08:59:33.971Z,62.10
2017-09-16T09:02:02.323Z,62.20
2017-09-16T09:04:30.656Z,62.00
2017-09-16T09:06:58.973Z,61.20
2017-09-16T09:09:27.314Z,60.60
2017-09-16T09:11:55.644Z,59.80
2017-09-16T09:14:23.997Z,59.40
2017-09-16T09:16:53.233Z,59.30
2017-09-16T09:19:21.611Z,59.00
2017-09-16T09:21:49.932Z,58.40
2017-09-16T09:24:18.298Z,58.30
2017-09-16T09:26:46.655Z,57.80
2017-09-16T09:29:14.993Z,56.90
2017-09-16T09:31:42.579Z,56.90
2017-09-16T09:34:10.892Z,56.30
2017-09-16T09:36:38.484Z,56.30
2017-09-16T09:39:06.804Z,55.20
2017-09-16T09:41:35.761Z,54.70
2017-09-16T09:44:04.120Z,54.30
2017-09-16T09:46:32.494Z,53.70
2017-09-16T09:49:00.799Z,53.10
2017-09-16T09:51:29.109Z,52.90
2017-09-16T09:53:57.444Z,51.60
2017-09-16T09:56:25.754Z,51.90
2017-09-16T09:58:54.086Z,52.40
2017-09-16T10:01:22.405Z,51.20
2017-09-16T10:03:51.492Z,51.10
2017-09-16T10:06:19.798Z,51.00
2017-09-16T10:08:48.135Z,50.90
2017-09-16T10:11:16.442Z,49.60
2017-09-16T10:13:44.779Z,49.50
2017-09-16T10:16:13.087Z,48.50
2017-09-16T10:18:41.387Z,48.60
2017-09-16T10:21:09.723Z,49.10
2017-09-16T10:23:38.039Z,48.80
2017-09-16T10:26:06.371Z,48.70
2017-09-16T10:28:34.684Z,49.10
2017-09-16T10:31:02.252Z,49.10
2017-09-16T10:33:30.575Z,48.40
2017-09-16T10:35:58.915Z,47.50
2017-09-16T10:38:27.248Z,47.50
2017-09-16T10:40:55.556Z,47.60
2017-09-16T10:43:23.895Z,46.50
2017-09-16T10:45:52.205Z,45.50
2017-09-16T10:48:20.536Z,45.10
2017-09-16T10:50:48.845Z,44.90
2017-09-16T10:53:17.178Z,43.30
2017-09-16T10:55:45.491Z,43.30
2017-09-16T10:58:13.799Z,42.60
2017-09-16T11:00:42.128Z,42.00
2017-09-16T11:03:10.435Z,41.90
2017-09-16T11:05:38.763Z,41.60
2017-09-16T11:08:07.067Z,41.40
2017-09-16T11:10:35.395Z,40.90
2017-09-16T11:13:03.695Z,40.90
2017-09-16T11:15:32.033Z,41.00
2017-09-16T11:18:00.339Z,41.30
2017-09-16T11:20:28.701Z,42.10
2017-09-16T11:22:57.011Z,43.70
2017-09-16T11:25:25.320Z,43.80
2017-09-16T11:27:53.647Z,43.60
2017-09-16T11:30:21.988Z,43.90
2017-09-16T11:32:50.323Z,44.90
2017-09-16T11:35:18.637Z,46.10
2017-09-16T11:37:46.959Z,46.70
2017-09-16T11:40:15.272Z,46.40
2017-09-16T11:42:43.608Z,46.30
2017-09-16T11:45:11.920Z,46.20
2017-09-16T11:47:40.252Z,46.90
2017-09-16T11:50:08.563Z,47.70
2017-09-16T11:52:36.903Z,48.60
2017-09-16T11:55:05.212Z,48.50
2017-09-16T11:57:33.560Z,47.80
2017-09-16T12:00:01.878Z,48.10
2017-09-16T12:02:30.188Z,49.00
2017-09-16T12:04:58.529Z,48.40
2017-09-16T12:07:26.870Z,48.70
2017-09-16T12:09:55.197Z,48.70
2017-09-16T12:12:23.517Z,48.90
2017-09-16T12:14:51.843Z,47.80
2017-09-16T12:17:20.153Z,46.70
2017-09-16T12:19:48.484Z,46.40
2017-09-16T12:22:16.793Z,46.60
2017-09-16T12:24:45.140Z,47.50
2017-09-16T12:27:13.456Z,48.60
2017-09-16T12:29:41.769Z,49.00
2017-09-16T12:32:10.129Z,48.30
2017-09-16T12:34:37.675Z,48.90
2017-09-16T12:37:05.996Z,47.50
2017-09-16T12:39:34.305Z,47.40
2017-09-16T12:42:02.628Z,47.60
2017-09-16T12:44:30.944Z,47.60
2017-09-16T12:46:59.277Z,47.80
2017-09-16T12:49:27.589Z,47.30
2017-09-16T12:51:55.945Z,48.10
2017-09-16T12:54:24.252Z,48.60
2017-09-16T12:56:52.555Z,48.70
2017-09-16T12:59:20.888Z,48.50
2017-09-16T13:01:49.205Z,49.20
2017-09-16T13:04:17.531Z,50.00
2017-09-16T13:06:45.840Z,51.00
2017-09-16T13:09:14.176Z,52.40
2017-09-16T13:11:42.550Z,54.70
2017-09-16T13:14:10.885Z,57.20
2017-09-16T13:16:39.195Z,59.00
2017-09-16T13:19:07.543Z,59.90
2017-09-16T13:21:35.861Z,61.10
2017-09-16T13:24:03.422Z,61.10
2017-09-16T13:26:31.765Z,58.10
2017-09-16T13:29:00.076Z,55.20
2017-09-16T13:31:28.412Z,55.10
2017-09-16T13:33:55.962Z,55.00
2017-09-16T13:36:23.555Z,55.00
2017-09-16T13:38:51.873Z,53.10
2017-09-16T13:41:20.252Z,50.60
2017-09-16T13:43:48.568Z,51.90
2017-09-16T13:46:16.891Z,55.00
2017-09-16T13:48:45.237Z,55.80
2017-09-16T13:51:13.822Z,56.40
2017-09-16T13:53:42.151Z,57.00
2017-09-16T13:56:09.702Z,57.00
2017-09-16T13:58:38.036Z,57.10
2017-09-16T14:01:06.340Z,58.10
2017-09-16T14:03:34.673Z,58.20
2017-09-16T14:06:02.216Z,58.20
2017-09-16T14:08:30.563Z,56.60
2017-09-16T14:10:58.111Z,56.40
2017-09-16T14:13:25.664Z,55.60
2017-09-16T14:15:54.005Z,54.20
2017-09-16T14:18:22.328Z,53.70
2017-09-16T14:20:50.660Z,52.50
2017-09-16T14:23:18.972Z,51.50
2017-09-16T14:25:47.304Z,51.40
2017-09-16T14:28:15.611Z,51.60
2017-09-16T14:30:43.937Z,52.70
2017-09-16T14:33:11.489Z,52.70
2017-09-16T14:35:40.743Z,54.20
2017-09-16T14:38:09.056Z,55.30
2017-09-16T14:40:37.404Z,55.90
2017-09-16T14:43:05.737Z,57.10
2017-09-16T14:45:33.284Z,57.10
2017-09-16T14:48:01.613Z,60.00
2017-09-16T14:50:29.165Z,60.00
2017-09-16T14:52:57.542Z,62.50
2017-09-16T14:55:25.855Z,63.50
2017-09-16T14:57:54.169Z,64.00
2017-09-16T15:00:22.551Z,64.70
2017-09-16T15:02:50.869Z,65.40
2017-09-16T15:05:19.207Z,66.50
2017-09-16T15:07:47.516Z,67.20
2017-09-16T15:10:15.954Z,67.60
2017-09-16T15:12:44.274Z,68.10
2017-09-16T15:15:12.628Z,68.10
2017-09-16T15:17:40.944Z,67.40
2017-09-16T15:20:09.258Z,67.20
2017-09-16T15:22:37.592Z,66.80
2017-09-16T15:25:05.904Z,67.20
2017-09-16T15:27:34.235Z,67.20
2017-09-16T15:30:02.568Z,68.20
2017-09-16T15:32:30.141Z,68.20
2017-09-16T15:34:58.467Z,68.50
2017-09-16T15:37:26.848Z,68.40
2017-09-16T15:39:55.169Z,68.30
2017-09-16T15:42:23.532Z,68.60
2017-09-16T15:44:51.852Z,68.30
2017-09-16T15:47:20.167Z,68.70
2017-09-16T15:49:48.506Z,69.50
2017-09-16T15:52:16.824Z,70.10
2017-09-16T15:54:45.159Z,71.60
2017-09-16T15:57:13.483Z,72.50
2017-09-16T15:59:41.817Z,72.70
2017-09-16T16:02:10.169Z,73.00
2017-09-16T16:04:38.595Z,73.00
2017-09-16T16:07:06.916Z,72.70
2017-09-16T16:09:35.272Z,72.50
2017-09-16T16:12:03.584Z,72.80
2017-09-16T16:14:31.896Z,73.40
2017-09-16T16:17:00.237Z,74.00
2017-09-16T16:19:28.550Z,74.40
2017-09-16T16:21:56.889Z,75.00
2017-09-16T16:24:25.205Z,75.70
2017-09-16T16:26:53.544Z,76.60
2017-09-16T16:29:21.856Z,77.00
2017-09-16T16:31:50.193Z,77.20
2017-09-16T16:34:18.510Z,77.70
2017-09-16T16:36:46.859Z,77.30
2017-09-16T16:39:15.175Z,77.10
2017-09-16T16:41:43.490Z,77.10
2017-09-16T16:44:11.828Z,77.20
2017-09-16T16:46:39.384Z,77.20
2017-09-16T16:49:07.720Z,77.20
2017-09-16T16:51:36.032Z,77.40
2017-09-16T16:54:04.368Z,77.50
2017-09-16T16:56:32.704Z,78.20
2017-09-16T16:59:01.057Z,78.40
2017-09-16T17:01:29.376Z,78.30
2017-09-16T17:03:57.755Z,78.30
2017-09-16T17:06:26.113Z,78.40
2017-09-16T17:08:54.435Z,78.80
2017-09-16T17:11:22.780Z,79.30
2017-09-16T17:13:51.105Z,79.50
2017-09-16T17:16:19.460Z,79.80
2017-09-16T17:18:47.780Z,80.20
2017-09-16T17:21:16.139Z,80.50
2017-09-16T17:23:44.456Z,81.00
2017-09-16T17:26:12.805Z,81.30
2017-09-16T17:28:41.124Z,81.60
2017-09-16T17:31:09.480Z,81.90
2017-09-16T17:33:37.795Z,82.30
2017-09-16T17:36:06.107Z,82.50
2017-09-16T17:38:34.443Z,82.80
2017-09-16T17:41:02.755Z,83.20
2017-09-16T17:43:31.092Z,83.50
2017-09-16T17:45:59.409Z,83.80
2017-09-16T17:48:27.747Z,83.90
2017-09-16T17:50:56.068Z,84.10
2017-09-16T17:53:24.379Z,84.40
2017-09-16T17:55:52.712Z,84.50
2017-09-16T17:58:21.031Z,84.30
2017-09-16T18:00:49.368Z,84.40
2017-09-16T18:03:17.692Z,84.10
2017-09-16T18:05:45.269Z,84.10
2017-09-16T18:08:13.600Z,82.90
2017-09-16T18:10:41.959Z,82.30
2017-09-16T18:13:10.276Z,81.30
2017-09-16T18:15:38.620Z,80.70
2017-09-16T18:18:06.957Z,80.70
2017-09-16T18:20:35.272Z,80.40
2017-09-16T18:23:03.603Z,80.60
2017-09-16T18:25:31.915Z,81.30
2017-09-16T18:28:01.355Z,82.00
2017-09-16T18:30:29.684Z,82.70
2017-09-16T18:32:58.114Z,83.10
2017-09-16T18:35:26.441Z,83.40
2017-09-16T18:37:54.760Z,82.90
2017-09-16T18:40:23.096Z,82.60
2017-09-16T18:42:51.411Z,83.00
2017-09-16T18:45:19.748Z,83.30
2017-09-16T18:47:48.084Z,84.30
2017-09-16T18:50:16.429Z,83.40
2017-09-16T18:52:44.749Z,83.70
2017-09-16T18:55:13.089Z,83.90
2017-09-16T18:57:41.400Z,84.10
2017-09-16T19:00:09.747Z,84.20
2017-09-16T19:02:38.140Z,84.20
2017-09-16T19:05:06.502Z,84.40
2017-09-16T19:07:34.815Z,84.60
2017-09-16T19:10:03.157Z,85.00
2017-09-16T19:12:31.492Z,85.20
2017-09-16T19:14:59.882Z,85.50
2017-09-16T19:17:28.312Z,85.70
2017-09-16T19:19:56.668Z,85.60
2017-09-16T19:22:24.244Z,85.50
2017-09-16T19:24:51.858Z,85.60
2017-09-16T19:27:20.280Z,85.80
2017-09-16T19:29:48.648Z,85.70
2017-09-16T19:32:16.988Z,85.90
2017-09-16T19:34:45.340Z,86.00
2017-09-16T19:37:13.691Z,86.00
2017-09-16T19:39:41.999Z,86.50
2017-09-16T19:42:10.418Z,86.00
2017-09-16T19:44:38.833Z,85.80
2017-09-16T19:47:07.237Z,85.90
2017-09-16T19:49:35.563Z,87.10
2017-09-16T19:52:03.965Z,87.10
2017-09-16T19:54:32.312Z,87.40
2017-09-16T19:57:00.653Z,87.50
2017-09-16T19:59:30.646Z,87.30
2017-09-16T20:01:59.004Z,87.30
2017-09-16T20:04:27.336Z,87.20
2017-09-16T20:06:55.668Z,87.20
2017-09-16T20:09:24.020Z,87.20
2017-09-16T20:11:52.352Z,87.40
2017-09-16T20:14:20.664Z,87.50
2017-09-16T20:16:48.996Z,87.70
2017-09-16T20:19:17.306Z,88.00
2017-09-16T20:21:44.881Z,88.00
2017-09-16T20:24:13.197Z,88.10
2017-09-16T20:26:41.588Z,87.90
2017-09-16T20:29:09.932Z,88.10
2017-09-16T20:31:38.336Z,88.00
2017-09-16T20:34:06.657Z,88.10
2017-09-16T20:36:35.022Z,88.20
2017-09-16T20:39:03.412Z,88.10
2017-09-16T20:41:31.743Z,88.20
2017-09-16T20:44:00.092Z,88.30
2017-09-16T20:46:28.420Z,88.10
2017-09-16T20:48:56.756Z,89.00
2017-09-16T20:51:25.073Z,88.00
2017-09-16T20:53:53.404Z,87.90
2017-09-16T20:56:21.753Z,88.00
2017-09-16T20:58:50.123Z,87.80
2017-09-16T21:01:18.440Z,87.90
2017-09-16T21:03:46.812Z,88.00
2017-09-16T21:06:15.228Z,88.10
2017-09-16T21:08:43.640Z,88.00
2017-09-16T21:11:12.072Z,88.10
2017-09-16T21:13:40.411Z,88.30
2017-09-16T21:16:08.781Z,88.40
2017-09-16T21:18:37.118Z,88.70
2017-09-16T21:21:04.720Z,89.50
2017-09-16T21:23:33.046Z,88.60
2017-09-16T21:26:01.412Z,88.50
2017-09-16T21:28:29.735Z,88.60
2017-09-16T21:30:58.110Z,88.60
2017-09-16T21:33:26.452Z,88.70
2017-09-16T21:35:54.772Z,88.80
2017-09-16T21:38:23.113Z,88.50
2017-09-16T21:40:51.437Z,88.50
2017-09-16T21:43:19.776Z,88.80
2017-09-16T21:45:48.092Z,89.00
2017-09-16T21:48:16.472Z,89.10
2017-09-16T21:50:44.792Z,89.20
2017-09-16T21:53:13.157Z,89.20
2017-09-16T21:55:41.480Z,89.00
2017-09-16T21:58:09.806Z,89.20
2017-09-16T22:00:38.149Z,89.00
2017-09-16T22:03:06.478Z,88.80
2017-09-16T22:05:34.816Z,88.80
2017-09-16T22:08:03.136Z,88.80
2017-09-16T22:10:31.468Z,88.80
2017-09-16T22:12:59.776Z,88.70
2017-09-16T22:15:27.344Z,88.60
2017-09-16T22:17:55.678Z,88.80
2017-09-16T22:20:24.037Z,88.70
2017-09-16T22:22:52.353Z,88.70
2017-09-16T22:25:20.675Z,88.50
2017-09-16T22:27:49.007Z,88.50
2017-09-16T22:30:17.315Z,88.30
2017-09-16T22:32:45.652Z,88.40
2017-09-16T22:35:13.966Z,88.40
2017-09-16T22:37:42.305Z,88.40
2017-09-16T22:40:10.615Z,88.50
2017-09-16T22:42:38.964Z,88.50
2017-09-16T22:45:07.275Z,88.50
2017-09-16T22:47:35.592Z,88.60
2017-09-16T22:50:03.930Z,88.50
2017-09-16T22:52:32.250Z,88.60
2017-09-16T22:55:00.592Z,88.70
2017-09-16T22:57:28.913Z,89.20
2017-09-16T22:59:57.256Z,89.70
2017-09-16T23:02:24.828Z,89.70
2017-09-16T23:04:53.179Z,89.50
2017-09-16T23:07:21.487Z,89.40
2017-09-16T23:09:49.807Z,89.10
2017-09-16T23:12:18.151Z,89.10
2017-09-16T23:14:46.472Z,89.10
2017-09-16T23:17:14.808Z,89.20
2017-09-16T23:19:43.133Z,89.20
2017-09-16T23:22:11.463Z,90.00
2017-09-16T23:24:39.784Z,89.30
2017-09-16T23:27:08.145Z,89.30
2017-09-16T23:29:36.474Z,90.00
2017-09-16T23:32:04.796Z,89.40
2017-09-16T23:34:33.135Z,89.30
2017-09-16T23:37:01.448Z,89.20
2017-09-16T23:39:29.804Z,89.20
2017-09-16T23:41:58.129Z,89.20
2017-09-16T23:44:26.483Z,89.20
2017-09-16T23:46:54.796Z,89.10
2017-09-16T23:49:23.116Z,89.10
2017-09-16T23:51:51.457Z,89.20
2017-09-16T23:54:19.769Z,89.20
2017-09-16T23:56:48.100Z,89.30
2017-09-16T23:59:16.431Z,89.30
